sensor_id;sensor_type;location;lat;lon;timestamp;P1;durP1;ratioP1;P2;durP2;ratioP2
18592;SDS011;9426;54.118;17.948;2024-01-25T00:00:55;13.67;;;2.83;;
18592;SDS011;9426;54.118;17.948;2024-01-25T00:06:27;21.67;;;2.97;;
18592;SDS011;9426;54.118;17.948;2024-01-25T00:11:54;20.43;;;3.47;;
18592;SDS011;9426;54.118;17.948;2024-01-25T00:17:22;26.80;;;3.87;;
18592;SDS011;9426;54.118;17.948;2024-01-25T00:22:47;22.97;;;3.10;;
18592;SDS011;9426;54.118;17.948;2024-01-25T00:28:16;24.17;;;3.43;;
18592;SDS011;9426;54.118;17.948;2024-01-25T00:33:44;21.60;;;4.03;;
18592;SDS011;9426;54.118;17.948;2024-01-25T00:39:10;21.60;;;3.80;;
18592;SDS011;9426;54.118;17.948;2024-01-25T00:44:37;25.63;;;4.20;;
18592;SDS011;9426;54.118;17.948;2024-01-25T00:50:07;26.13;;;3.90;;
18592;SDS011;9426;54.118;17.948;2024-01-25T00:55:38;22.27;;;4.10;;
18592;SDS011;9426;54.118;17.948;2024-01-25T01:01:04;27.73;;;4.60;;
18592;SDS011;9426;54.118;17.948;2024-01-25T01:06:32;35.20;;;4.57;;
18592;SDS011;9426;54.118;17.948;2024-01-25T01:11:56;39.10;;;4.67;;
18592;SDS011;9426;54.118;17.948;2024-01-25T01:17:22;32.77;;;4.90;;
18592;SDS011;9426;54.118;17.948;2024-01-25T01:22:47;29.43;;;3.87;;
18592;SDS011;9426;54.118;17.948;2024-01-25T01:28:13;35.67;;;4.20;;
18592;SDS011;9426;54.118;17.948;2024-01-25T01:33:36;31.73;;;3.90;;
18592;SDS011;9426;54.118;17.948;2024-01-25T01:39:02;23.63;;;4.33;;
18592;SDS011;9426;54.118;17.948;2024-01-25T01:44:25;29.17;;;4.57;;
18592;SDS011;9426;54.118;17.948;2024-01-25T01:49:49;34.93;;;5.73;;
18592;SDS011;9426;54.118;17.948;2024-01-25T01:55:15;27.37;;;3.77;;
18592;SDS011;9426;54.118;17.948;2024-01-25T02:00:40;37.17;;;4.30;;
18592;SDS011;9426;54.118;17.948;2024-01-25T02:06:06;34.57;;;4.37;;
18592;SDS011;9426;54.118;17.948;2024-01-25T02:11:34;27.47;;;4.33;;
18592;SDS011;9426;54.118;17.948;2024-01-25T02:16:59;23.87;;;3.73;;
18592;SDS011;9426;54.118;17.948;2024-01-25T02:22:27;17.07;;;3.53;;
18592;SDS011;9426;54.118;17.948;2024-01-25T02:27:54;23.57;;;3.20;;
18592;SDS011;9426;54.118;17.948;2024-01-25T02:33:21;20.73;;;2.90;;
18592;SDS011;9426;54.118;17.948;2024-01-25T02:38:49;12.13;;;2.60;;
18592;SDS011;9426;54.118;17.948;2024-01-25T02:44:13;15.70;;;3.20;;
18592;SDS011;9426;54.118;17.948;2024-01-25T02:49:39;20.13;;;2.87;;
18592;SDS011;9426;54.118;17.948;2024-01-25T02:55:07;16.00;;;2.83;;
18592;SDS011;9426;54.118;17.948;2024-01-25T03:00:33;15.70;;;3.00;;
18592;SDS011;9426;54.118;17.948;2024-01-25T03:05:59;19.60;;;2.57;;
18592;SDS011;9426;54.118;17.948;2024-01-25T03:11:28;12.70;;;2.20;;
18592;SDS011;9426;54.118;17.948;2024-01-25T03:16:53;11.47;;;2.07;;
18592;SDS011;9426;54.118;17.948;2024-01-25T03:22:18;15.97;;;2.17;;
18592;SDS011;9426;54.118;17.948;2024-01-25T03:27:45;12.57;;;2.33;;
18592;SDS011;9426;54.118;17.948;2024-01-25T03:33:09;17.80;;;2.47;;
18592;SDS011;9426;54.118;17.948;2024-01-25T03:38:33;11.37;;;1.83;;
18592;SDS011;9426;54.118;17.948;2024-01-25T03:43:59;10.80;;;1.80;;
18592;SDS011;9426;54.118;17.948;2024-01-25T03:49:24;19.67;;;3.03;;
18592;SDS011;9426;54.118;17.948;2024-01-25T03:54:50;16.23;;;3.13;;
18592;SDS011;9426;54.118;17.948;2024-01-25T04:00:15;18.27;;;3.03;;
18592;SDS011;9426;54.118;17.948;2024-01-25T04:05:39;18.13;;;3.43;;
18592;SDS011;9426;54.118;17.948;2024-01-25T04:11:04;16.77;;;2.40;;
18592;SDS011;9426;54.118;17.948;2024-01-25T04:16:33;13.37;;;2.37;;
18592;SDS011;9426;54.118;17.948;2024-01-25T04:21:58;10.43;;;1.80;;
18592;SDS011;9426;54.118;17.948;2024-01-25T04:27:25;11.33;;;2.00;;
18592;SDS011;9426;54.118;17.948;2024-01-25T04:32:54;7.27;;;1.50;;
18592;SDS011;9426;54.118;17.948;2024-01-25T04:38:21;7.87;;;1.90;;
18592;SDS011;9426;54.118;17.948;2024-01-25T04:43:49;9.77;;;1.70;;
18592;SDS011;9426;54.118;17.948;2024-01-25T04:49:19;11.83;;;1.50;;
18592;SDS011;9426;54.118;17.948;2024-01-25T04:54:49;12.43;;;2.23;;
18592;SDS011;9426;54.118;17.948;2024-01-25T05:00:15;6.93;;;1.43;;
18592;SDS011;9426;54.118;17.948;2024-01-25T05:11:58;6.17;;;1.53;;
18592;SDS011;9426;54.118;17.948;2024-01-25T05:17:36;6.17;;;1.40;;
18592;SDS011;9426;54.118;17.948;2024-01-25T05:23:03;7.10;;;1.50;;
18592;SDS011;9426;54.118;17.948;2024-01-25T05:28:33;8.37;;;1.53;;
18592;SDS011;9426;54.118;17.948;2024-01-25T05:34:00;8.43;;;1.73;;
18592;SDS011;9426;54.118;17.948;2024-01-25T05:39:28;8.33;;;1.20;;
18592;SDS011;9426;54.118;17.948;2024-01-25T05:44:56;7.97;;;1.50;;
18592;SDS011;9426;54.118;17.948;2024-01-25T05:50:30;13.30;;;1.90;;
18592;SDS011;9426;54.118;17.948;2024-01-25T05:55:59;8.80;;;1.87;;
18592;SDS011;9426;54.118;17.948;2024-01-25T06:01:30;9.80;;;1.80;;
18592;SDS011;9426;54.118;17.948;2024-01-25T06:06:59;9.80;;;2.07;;
18592;SDS011;9426;54.118;17.948;2024-01-25T06:12:26;8.03;;;1.93;;
18592;SDS011;9426;54.118;17.948;2024-01-25T06:17:54;10.40;;;1.63;;
18592;SDS011;9426;54.118;17.948;2024-01-25T06:23:21;7.53;;;1.70;;
18592;SDS011;9426;54.118;17.948;2024-01-25T06:28:48;15.10;;;2.80;;
18592;SDS011;9426;54.118;17.948;2024-01-25T06:34:19;12.53;;;2.00;;
18592;SDS011;9426;54.118;17.948;2024-01-25T06:39:45;13.77;;;2.87;;
18592;SDS011;9426;54.118;17.948;2024-01-25T06:45:13;21.67;;;2.20;;
18592;SDS011;9426;54.118;17.948;2024-01-25T06:50:39;11.70;;;2.40;;
18592;SDS011;9426;54.118;17.948;2024-01-25T06:56:07;11.10;;;1.97;;
18592;SDS011;9426;54.118;17.948;2024-01-25T07:01:32;6.83;;;2.03;;
18592;SDS011;9426;54.118;17.948;2024-01-25T07:06:58;9.00;;;2.70;;
18592;SDS011;9426;54.118;17.948;2024-01-25T07:12:23;18.60;;;2.60;;
18592;SDS011;9426;54.118;17.948;2024-01-25T07:17:48;18.90;;;2.67;;
18592;SDS011;9426;54.118;17.948;2024-01-25T07:23:13;22.07;;;3.30;;
18592;SDS011;9426;54.118;17.948;2024-01-25T07:28:38;15.10;;;2.60;;
18592;SDS011;9426;54.118;17.948;2024-01-25T07:34:03;19.77;;;4.93;;
18592;SDS011;9426;54.118;17.948;2024-01-25T07:39:30;15.13;;;2.43;;
18592;SDS011;9426;54.118;17.948;2024-01-25T07:44:57;32.27;;;3.73;;
18592;SDS011;9426;54.118;17.948;2024-01-25T07:50:22;22.07;;;2.70;;
18592;SDS011;9426;54.118;17.948;2024-01-25T07:55:48;18.63;;;3.60;;
18592;SDS011;9426;54.118;17.948;2024-01-25T08:01:17;18.93;;;2.87;;
18592;SDS011;9426;54.118;17.948;2024-01-25T08:06:44;17.20;;;2.97;;
18592;SDS011;9426;54.118;17.948;2024-01-25T08:12:12;20.67;;;2.70;;
18592;SDS011;9426;54.118;17.948;2024-01-25T08:17:37;13.10;;;2.77;;
18592;SDS011;9426;54.118;17.948;2024-01-25T08:23:02;17.10;;;3.80;;
18592;SDS011;9426;54.118;17.948;2024-01-25T08:28:29;14.33;;;2.70;;
18592;SDS011;9426;54.118;17.948;2024-01-25T08:33:56;12.17;;;2.60;;
18592;SDS011;9426;54.118;17.948;2024-01-25T08:39:23;17.47;;;3.37;;
18592;SDS011;9426;54.118;17.948;2024-01-25T08:44:51;9.13;;;1.97;;
18592;SDS011;9426;54.118;17.948;2024-01-25T08:50:18;9.27;;;2.60;;
18592;SDS011;9426;54.118;17.948;2024-01-25T08:55:45;6.43;;;1.80;;
18592;SDS011;9426;54.118;17.948;2024-01-25T09:01:13;7.20;;;2.53;;
18592;SDS011;9426;54.118;17.948;2024-01-25T09:06:40;3.03;;;1.47;;
18592;SDS011;9426;54.118;17.948;2024-01-25T09:12:07;3.03;;;1.80;;
18592;SDS011;9426;54.118;17.948;2024-01-25T09:17:47;7.13;;;1.40;;
18592;SDS011;9426;54.118;17.948;2024-01-25T09:23:14;2.33;;;1.40;;
18592;SDS011;9426;54.118;17.948;2024-01-25T09:28:41;1.97;;;1.23;;
18592;SDS011;9426;54.118;17.948;2024-01-25T09:34:10;2.90;;;1.30;;
18592;SDS011;9426;54.118;17.948;2024-01-25T09:39:36;3.30;;;1.30;;
18592;SDS011;9426;54.118;17.948;2024-01-25T09:45:05;4.20;;;1.30;;
18592;SDS011;9426;54.118;17.948;2024-01-25T09:50:36;3.53;;;1.30;;
18592;SDS011;9426;54.118;17.948;2024-01-25T09:56:05;4.37;;;1.20;;
18592;SDS011;9426;54.118;17.948;2024-01-25T10:01:32;2.13;;;1.20;;
18592;SDS011;9426;54.118;17.948;2024-01-25T10:07:00;4.57;;;1.70;;
18592;SDS011;9426;54.118;17.948;2024-01-25T10:12:26;2.67;;;1.80;;
18592;SDS011;9426;54.118;17.948;2024-01-25T10:17:54;3.13;;;1.80;;
18592;SDS011;9426;54.118;17.948;2024-01-25T10:23:22;2.80;;;1.80;;
18592;SDS011;9426;54.118;17.948;2024-01-25T10:28:52;3.10;;;1.97;;
18592;SDS011;9426;54.118;17.948;2024-01-25T10:34:22;2.83;;;1.80;;
18592;SDS011;9426;54.118;17.948;2024-01-25T10:39:52;4.63;;;1.77;;
18592;SDS011;9426;54.118;17.948;2024-01-25T10:45:26;2.87;;;1.50;;
18592;SDS011;9426;54.118;17.948;2024-01-25T10:50:53;4.10;;;1.67;;
18592;SDS011;9426;54.118;17.948;2024-01-25T10:56:19;5.83;;;1.67;;
18592;SDS011;9426;54.118;17.948;2024-01-25T11:01:47;2.60;;;1.10;;
18592;SDS011;9426;54.118;17.948;2024-01-25T11:07:14;2.07;;;1.10;;
18592;SDS011;9426;54.118;17.948;2024-01-25T11:12:49;2.80;;;1.90;;
18592;SDS011;9426;54.118;17.948;2024-01-25T11:18:16;3.07;;;1.60;;
18592;SDS011;9426;54.118;17.948;2024-01-25T11:23:41;5.57;;;1.57;;
18592;SDS011;9426;54.118;17.948;2024-01-25T11:29:08;4.17;;;1.27;;
18592;SDS011;9426;54.118;17.948;2024-01-25T11:34:33;3.40;;;1.50;;
18592;SDS011;9426;54.118;17.948;2024-01-25T11:39:57;3.53;;;1.10;;
18592;SDS011;9426;54.118;17.948;2024-01-25T11:45:22;3.17;;;1.60;;
18592;SDS011;9426;54.118;17.948;2024-01-25T11:50:47;3.80;;;2.00;;
18592;SDS011;9426;54.118;17.948;2024-01-25T11:56:12;2.60;;;1.43;;
18592;SDS011;9426;54.118;17.948;2024-01-25T12:01:40;2.27;;;1.10;;
18592;SDS011;9426;54.118;17.948;2024-01-25T12:07:05;1.80;;;1.10;;
18592;SDS011;9426;54.118;17.948;2024-01-25T12:12:31;2.03;;;1.30;;
18592;SDS011;9426;54.118;17.948;2024-01-25T12:17:58;3.37;;;1.37;;
18592;SDS011;9426;54.118;17.948;2024-01-25T12:23:23;3.00;;;1.20;;
18592;SDS011;9426;54.118;17.948;2024-01-25T12:28:54;4.90;;;1.50;;
18592;SDS011;9426;54.118;17.948;2024-01-25T12:34:19;6.00;;;1.30;;
18592;SDS011;9426;54.118;17.948;2024-01-25T12:39:43;4.33;;;1.77;;
18592;SDS011;9426;54.118;17.948;2024-01-25T12:45:07;4.73;;;1.50;;
18592;SDS011;9426;54.118;17.948;2024-01-25T12:50:32;2.67;;;1.80;;
18592;SDS011;9426;54.118;17.948;2024-01-25T12:55:56;3.67;;;1.77;;
18592;SDS011;9426;54.118;17.948;2024-01-25T13:01:21;3.43;;;1.70;;
18592;SDS011;9426;54.118;17.948;2024-01-25T13:06:50;1.80;;;0.93;;
18592;SDS011;9426;54.118;17.948;2024-01-25T13:12:16;3.33;;;1.20;;
18592;SDS011;9426;54.118;17.948;2024-01-25T13:17:40;2.43;;;1.30;;
18592;SDS011;9426;54.118;17.948;2024-01-25T13:23:06;3.13;;;1.20;;
18592;SDS011;9426;54.118;17.948;2024-01-25T13:28:30;7.10;;;1.40;;
18592;SDS011;9426;54.118;17.948;2024-01-25T13:33:54;2.50;;;1.10;;
18592;SDS011;9426;54.118;17.948;2024-01-25T13:39:20;3.30;;;1.37;;
18592;SDS011;9426;54.118;17.948;2024-01-25T13:44:44;2.70;;;1.30;;
18592;SDS011;9426;54.118;17.948;2024-01-25T13:50:10;2.53;;;1.33;;
18592;SDS011;9426;54.118;17.948;2024-01-25T13:55:36;3.27;;;1.50;;
18592;SDS011;9426;54.118;17.948;2024-01-25T14:01:00;5.93;;;1.70;;
18592;SDS011;9426;54.118;17.948;2024-01-25T14:06:28;3.33;;;1.40;;
18592;SDS011;9426;54.118;17.948;2024-01-25T14:11:54;3.90;;;1.30;;
18592;SDS011;9426;54.118;17.948;2024-01-25T14:17:21;4.37;;;1.30;;
18592;SDS011;9426;54.118;17.948;2024-01-25T14:22:45;2.60;;;1.13;;
18592;SDS011;9426;54.118;17.948;2024-01-25T14:28:13;3.93;;;1.00;;
18592;SDS011;9426;54.118;17.948;2024-01-25T14:33:57;1.60;;;1.00;;
18592;SDS011;9426;54.118;17.948;2024-01-25T14:39:36;4.57;;;1.23;;
18592;SDS011;9426;54.118;17.948;2024-01-25T14:50:58;5.00;;;1.30;;
18592;SDS011;9426;54.118;17.948;2024-01-25T14:56:36;3.40;;;1.50;;
18592;SDS011;9426;54.118;17.948;2024-01-25T15:02:00;1.97;;;1.50;;
18592;SDS011;9426;54.118;17.948;2024-01-25T15:07:26;3.30;;;1.37;;
18592;SDS011;9426;54.118;17.948;2024-01-25T15:12:52;5.43;;;1.40;;
18592;SDS011;9426;54.118;17.948;2024-01-25T15:18:21;2.77;;;1.57;;
18592;SDS011;9426;54.118;17.948;2024-01-25T15:23:59;4.03;;;2.00;;
18592;SDS011;9426;54.118;17.948;2024-01-25T15:29:53;4.63;;;1.70;;
18592;SDS011;9426;54.118;17.948;2024-01-25T15:35:33;5.07;;;1.93;;
18592;SDS011;9426;54.118;17.948;2024-01-25T15:41:10;3.33;;;1.80;;
18592;SDS011;9426;54.118;17.948;2024-01-25T15:46:34;6.13;;;1.67;;
18592;SDS011;9426;54.118;17.948;2024-01-25T15:51:58;2.30;;;1.20;;
18592;SDS011;9426;54.118;17.948;2024-01-25T15:57:24;3.10;;;1.40;;
18592;SDS011;9426;54.118;17.948;2024-01-25T16:02:49;6.93;;;1.37;;
18592;SDS011;9426;54.118;17.948;2024-01-25T16:08:15;2.07;;;1.27;;
18592;SDS011;9426;54.118;17.948;2024-01-25T16:13:40;1.73;;;1.10;;
18592;SDS011;9426;54.118;17.948;2024-01-25T16:19:05;3.70;;;1.20;;
18592;SDS011;9426;54.118;17.948;2024-01-25T16:24:28;6.80;;;2.37;;
18592;SDS011;9426;54.118;17.948;2024-01-25T16:29:54;4.00;;;1.37;;
18592;SDS011;9426;54.118;17.948;2024-01-25T16:35:36;2.77;;;1.43;;
18592;SDS011;9426;54.118;17.948;2024-01-25T16:41:06;3.07;;;1.23;;
18592;SDS011;9426;54.118;17.948;2024-01-25T16:46:32;4.73;;;2.10;;
18592;SDS011;9426;54.118;17.948;2024-01-25T16:51:56;3.00;;;1.60;;
18592;SDS011;9426;54.118;17.948;2024-01-25T16:57:20;4.63;;;1.43;;
18592;SDS011;9426;54.118;17.948;2024-01-25T17:02:46;2.13;;;1.40;;
18592;SDS011;9426;54.118;17.948;2024-01-25T17:08:10;3.77;;;1.53;;
18592;SDS011;9426;54.118;17.948;2024-01-25T17:13:34;4.10;;;1.83;;
18592;SDS011;9426;54.118;17.948;2024-01-25T17:19:00;3.50;;;1.60;;
18592;SDS011;9426;54.118;17.948;2024-01-25T17:24:24;3.00;;;1.50;;
18592;SDS011;9426;54.118;17.948;2024-01-25T17:29:49;3.50;;;1.40;;
18592;SDS011;9426;54.118;17.948;2024-01-25T17:35:15;2.83;;;1.20;;
18592;SDS011;9426;54.118;17.948;2024-01-25T17:40:40;4.60;;;1.63;;
18592;SDS011;9426;54.118;17.948;2024-01-25T17:46:04;4.07;;;1.37;;
18592;SDS011;9426;54.118;17.948;2024-01-25T17:51:30;1.70;;;1.30;;
18592;SDS011;9426;54.118;17.948;2024-01-25T17:56:54;3.50;;;1.20;;
18592;SDS011;9426;54.118;17.948;2024-01-25T18:02:20;3.97;;;2.17;;
18592;SDS011;9426;54.118;17.948;2024-01-25T18:07:46;1.67;;;1.27;;
18592;SDS011;9426;54.118;17.948;2024-01-25T18:13:10;2.23;;;1.13;;
18592;SDS011;9426;54.118;17.948;2024-01-25T18:18:34;5.03;;;1.73;;
18592;SDS011;9426;54.118;17.948;2024-01-25T18:23:59;3.90;;;1.47;;
18592;SDS011;9426;54.118;17.948;2024-01-25T18:29:26;4.17;;;1.50;;
18592;SDS011;9426;54.118;17.948;2024-01-25T18:34:52;2.47;;;1.40;;
18592;SDS011;9426;54.118;17.948;2024-01-25T18:40:18;7.50;;;2.73;;
18592;SDS011;9426;54.118;17.948;2024-01-25T18:45:42;7.80;;;2.87;;
18592;SDS011;9426;54.118;17.948;2024-01-25T18:51:06;11.13;;;3.97;;
18592;SDS011;9426;54.118;17.948;2024-01-25T18:56:34;11.13;;;4.43;;
18592;SDS011;9426;54.118;17.948;2024-01-25T19:01:59;4.13;;;1.80;;
18592;SDS011;9426;54.118;17.948;2024-01-25T19:07:24;3.33;;;1.93;;
18592;SDS011;9426;54.118;17.948;2024-01-25T19:12:50;7.20;;;1.93;;
18592;SDS011;9426;54.118;17.948;2024-01-25T19:18:14;6.90;;;2.03;;
18592;SDS011;9426;54.118;17.948;2024-01-25T19:23:38;5.13;;;2.07;;
18592;SDS011;9426;54.118;17.948;2024-01-25T19:29:03;3.50;;;2.30;;
18592;SDS011;9426;54.118;17.948;2024-01-25T19:34:28;4.60;;;2.00;;
18592;SDS011;9426;54.118;17.948;2024-01-25T19:39:52;2.33;;;1.40;;
18592;SDS011;9426;54.118;17.948;2024-01-25T19:45:17;3.70;;;1.53;;
18592;SDS011;9426;54.118;17.948;2024-01-25T19:50:41;2.80;;;1.63;;
18592;SDS011;9426;54.118;17.948;2024-01-25T19:56:05;5.67;;;2.03;;
18592;SDS011;9426;54.118;17.948;2024-01-25T20:01:32;2.47;;;1.70;;
18592;SDS011;9426;54.118;17.948;2024-01-25T20:06:56;4.83;;;1.60;;
18592;SDS011;9426;54.118;17.948;2024-01-25T20:12:20;2.80;;;1.83;;
18592;SDS011;9426;54.118;17.948;2024-01-25T20:17:46;2.13;;;1.20;;
18592;SDS011;9426;54.118;17.948;2024-01-25T20:23:10;3.33;;;1.10;;
18592;SDS011;9426;54.118;17.948;2024-01-25T20:28:35;1.73;;;1.10;;
18592;SDS011;9426;54.118;17.948;2024-01-25T20:34:00;1.63;;;1.00;;
18592;SDS011;9426;54.118;17.948;2024-01-25T20:39:24;1.50;;;1.00;;
18592;SDS011;9426;54.118;17.948;2024-01-25T20:44:49;3.27;;;1.10;;
18592;SDS011;9426;54.118;17.948;2024-01-25T20:50:15;2.30;;;1.10;;
18592;SDS011;9426;54.118;17.948;2024-01-25T20:55:39;2.60;;;1.40;;
18592;SDS011;9426;54.118;17.948;2024-01-25T21:01:04;2.40;;;1.20;;
18592;SDS011;9426;54.118;17.948;2024-01-25T21:06:30;2.00;;;1.30;;
18592;SDS011;9426;54.118;17.948;2024-01-25T21:11:54;1.53;;;1.10;;
18592;SDS011;9426;54.118;17.948;2024-01-25T21:17:18;1.40;;;1.17;;
18592;SDS011;9426;54.118;17.948;2024-01-25T21:22:44;1.90;;;1.00;;
18592;SDS011;9426;54.118;17.948;2024-01-25T21:28:08;3.07;;;1.30;;
18592;SDS011;9426;54.118;17.948;2024-01-25T21:33:33;4.13;;;0.90;;
18592;SDS011;9426;54.118;17.948;2024-01-25T21:38:59;1.00;;;0.90;;
18592;SDS011;9426;54.118;17.948;2024-01-25T21:44:22;1.73;;;0.90;;
18592;SDS011;9426;54.118;17.948;2024-01-25T21:49:46;1.43;;;0.90;;
18592;SDS011;9426;54.118;17.948;2024-01-25T21:55:12;1.90;;;0.87;;
18592;SDS011;9426;54.118;17.948;2024-01-25T22:00:36;0.90;;;0.87;;
18592;SDS011;9426;54.118;17.948;2024-01-25T22:06:01;2.70;;;0.80;;
18592;SDS011;9426;54.118;17.948;2024-01-25T22:11:26;5.30;;;1.10;;
18592;SDS011;9426;54.118;17.948;2024-01-25T22:16:50;1.30;;;0.90;;
18592;SDS011;9426;54.118;17.948;2024-01-25T22:22:14;1.40;;;0.93;;
18592;SDS011;9426;54.118;17.948;2024-01-25T22:27:39;2.90;;;0.80;;
18592;SDS011;9426;54.118;17.948;2024-01-25T22:33:03;2.50;;;1.10;;
18592;SDS011;9426;54.118;17.948;2024-01-25T22:38:27;1.30;;;1.00;;
18592;SDS011;9426;54.118;17.948;2024-01-25T22:43:53;1.47;;;1.00;;
18592;SDS011;9426;54.118;17.948;2024-01-25T22:49:17;1.53;;;1.00;;
18592;SDS011;9426;54.118;17.948;2024-01-25T22:54:41;3.40;;;1.20;;
18592;SDS011;9426;54.118;17.948;2024-01-25T23:00:08;2.17;;;1.00;;
18592;SDS011;9426;54.118;17.948;2024-01-25T23:06:01;1.47;;;1.00;;
18592;SDS011;9426;54.118;17.948;2024-01-25T23:11:25;1.80;;;0.87;;
18592;SDS011;9426;54.118;17.948;2024-01-25T23:16:52;1.37;;;0.83;;
18592;SDS011;9426;54.118;17.948;2024-01-25T23:22:16;1.13;;;1.03;;
18592;SDS011;9426;54.118;17.948;2024-01-25T23:27:40;1.30;;;1.00;;
18592;SDS011;9426;54.118;17.948;2024-01-25T23:33:05;0.93;;;0.80;;
18592;SDS011;9426;54.118;17.948;2024-01-25T23:38:30;1.17;;;0.87;;
18592;SDS011;9426;54.118;17.948;2024-01-25T23:43:54;1.50;;;1.00;;
18592;SDS011;9426;54.118;17.948;2024-01-25T23:49:19;1.93;;;1.10;;
18592;SDS011;9426;54.118;17.948;2024-01-25T23:54:43;1.30;;;0.97;;
